Time;durP1;ratioP1;P1;durP2;ratioP2;P2;SDS_P1;SDS_P2;PMS_P1;PMS_P2;Temp;Humidity;BMP_temperature;BMP_pressure;BME280_temperature;BME280_humidity;BME280_pressure;Samples;Min_cycle;Max_cycle;Signal;HPM_P1;HPM_P2
2023/03/18 00:00:15;;;;;;;23.63;11.63;;;;;;;5.74;100.00;93540.47;5036028;28;20378;-67
2023/03/18 00:02:42;;;;;;;24.10;12.45;;;;;;;5.90;100.00;93538.06;5050180;28;20053;-65
2023/03/18 00:05:10;;;;;;;17.35;8.35;;;;;;;5.97;100.00;93537.28;5048529;28;20045;-65
2023/03/18 00:07:38;;;;;;;17.98;9.80;;;;;;;6.14;100.00;93532.94;5049910;28;20082;-66
2023/03/18 00:10:09;;;;;;;17.80;8.30;;;;;;;6.15;100.00;93532.53;5038788;28;20040;-67
2023/03/18 00:12:38;;;;;;;19.48;10.02;;;;;;;5.96;100.00;93528.34;5050266;28;20055;-65
2023/03/18 00:15:08;;;;;;;14.80;7.75;;;;;;;6.06;100.00;93523.25;5048674;28;20037;-65
2023/03/18 00:17:36;;;;;;;10.48;5.43;;;;;;;6.05;100.00;93535.31;5050144;28;20458;-65
2023/03/18 00:20:05;;;;;;;10.52;5.43;;;;;;;6.13;100.00;93540.31;5049166;28;20085;-66
2023/03/18 00:22:34;;;;;;;10.50;5.30;;;;;;;6.28;100.00;93532.06;5049442;28;20043;-67
2023/03/18 00:25:01;;;;;;;13.63;6.60;;;;;;;6.32;100.00;93538.31;5049678;28;20478;-66
2023/03/18 00:27:29;;;;;;;20.05;9.57;;;;;;;6.29;100.00;93539.09;5050187;28;20048;-66
2023/03/18 00:29:56;;;;;;;19.20;9.85;;;;;;;6.02;100.00;93536.09;5036342;28;20045;-65
2023/03/18 00:32:25;;;;;;;10.13;5.60;;;;;;;6.10;100.00;93543.09;5049952;28;20489;-65
2023/03/18 00:34:53;;;;;;;9.57;5.23;;;;;;;6.26;100.00;93545.31;5040315;28;20462;-65
2023/03/18 00:37:29;;;;;;;10.90;6.20;;;;;;;6.09;100.00;93547.72;5023226;28;20041;-65
2023/03/18 00:40:07;;;;;;;12.07;6.40;;;;;;;6.06;100.00;93545.03;5048493;28;20425;-68
2023/03/18 00:42:38;;;;;;;13.98;7.97;;;;;;;5.96;100.00;93547.41;5050068;28;20045;-66
2023/03/18 00:45:06;;;;;;;16.77;9.27;;;;;;;5.76;100.00;93555.22;5049772;28;20049;-65
2023/03/18 00:47:34;;;;;;;15.17;7.90;;;;;;;5.80;100.00;93547.03;5049985;28;20121;-65
2023/03/18 00:50:02;;;;;;;15.57;8.23;;;;;;;5.91;100.00;93549.72;5049532;28;20097;-65
2023/03/18 00:52:29;;;;;;;16.98;9.48;;;;;;;5.99;100.00;93546.59;5049783;28;20045;-65
2023/03/18 00:54:58;;;;;;;9.88;6.40;;;;;;;6.03;100.00;93557.50;5049617;28;20041;-65
2023/03/18 00:57:27;;;;;;;11.52;6.40;;;;;;;5.95;100.00;93559.47;5049945;28;20333;-65
2023/03/18 00:59:54;;;;;;;9.93;5.33;;;;;;;6.03;100.00;93570.34;5035629;28;20035;-64
2023/03/18 01:02:22;;;;;;;13.95;5.93;;;;;;;5.95;100.00;93559.47;5047875;28;20044;-66
2023/03/18 01:04:50;;;;;;;14.93;7.80;;;;;;;5.85;100.00;93559.47;5049344;28;20109;-66
2023/03/18 01:07:16;;;;;;;20.05;9.98;;;;;;;5.89;100.00;93562.97;5037487;28;20447;-66
2023/03/18 01:09:43;;;;;;;19.42;10.40;;;;;;;5.73;100.00;93555.22;5045514;28;20043;-66
2023/03/18 01:12:10;;;;;;;16.80;9.90;;;;;;;5.74;100.00;93557.56;5048984;28;20052;-65
2023/03/18 01:14:38;;;;;;;19.77;9.20;;;;;;;5.76;100.00;93554.44;5048398;28;20047;-65
2023/03/18 01:17:06;;;;;;;30.50;14.95;;;;;;;5.75;100.00;93553.66;5037427;28;20545;-66
2023/03/18 01:19:34;;;;;;;16.90;9.77;;;;;;;5.78;100.00;93552.88;5048830;28;20528;-63
2023/03/18 01:22:02;;;;;;;18.85;8.65;;;;;;;5.83;100.00;93572.72;5041730;28;20067;-63
2023/03/18 01:24:29;;;;;;;13.53;7.77;;;;;;;5.66;100.00;93569.63;5042949;28;20048;-64
2023/03/18 01:26:56;;;;;;;13.23;6.75;;;;;;;5.73;100.00;93561.44;5048437;28;20051;-66
2023/03/18 01:29:24;;;;;;;15.45;6.72;;;;;;;5.73;100.00;93560.66;5048680;28;20045;-66
2023/03/18 01:31:50;;;;;;;14.25;7.43;;;;;;;5.57;100.00;93561.09;5049003;28;20049;-64
2023/03/18 01:34:17;;;;;;;15.82;8.30;;;;;;;5.42;100.00;93556.84;5045302;28;20033;-64
2023/03/18 01:36:45;;;;;;;14.63;7.97;;;;;;;5.54;100.00;93562.66;5030287;28;20041;-63
2023/03/18 01:39:12;;;;;;;14.02;7.78;;;;;;;5.60;100.00;93558.38;5042431;28;20094;-64
2023/03/18 01:41:39;;;;;;;13.88;7.10;;;;;;;5.64;100.00;93563.81;5048590;28;20041;-66
2023/03/18 01:44:14;;;;;;;13.35;7.25;;;;;;;5.58;100.00;93557.97;5047319;28;20079;-64
2023/03/18 01:46:46;;;;;;;13.38;7.50;;;;;;;5.28;100.00;93555.69;5024652;28;20041;-64
2023/03/18 01:49:27;;;;;;;12.20;7.43;;;;;;;5.38;100.00;93557.63;5048107;28;20063;-63
2023/03/18 01:52:01;;;;;;;15.82;8.90;;;;;;;5.43;100.00;93553.72;5048228;28;20056;-63
2023/03/18 01:54:33;;;;;;;24.08;12.80;;;;;;;5.47;100.00;93548.28;5048315;28;20032;-65
2023/03/18 01:57:02;;;;;;;15.52;7.85;;;;;;;5.47;100.00;93551.00;5048285;28;20041;-64
2023/03/18 01:59:33;;;;;;;15.05;7.80;;;;;;;5.49;100.00;93554.88;5048450;28;20063;-64
2023/03/18 02:02:08;;;;;;;16.63;7.50;;;;;;;5.49;100.00;93548.66;5048372;28;20055;-65
2023/03/18 02:04:46;;;;;;;13.38;7.10;;;;;;;5.31;100.00;93544.06;5048689;28;20043;-64
2023/03/18 02:07:23;;;;;;;11.63;6.68;;;;;;;5.32;100.00;93542.09;5048207;28;20101;-64
2023/03/18 02:09:51;;;;;;;11.07;6.00;;;;;;;5.32;100.00;93544.81;5048051;28;20409;-61
2023/03/18 02:12:26;;;;;;;39.80;19.92;;;;;;;5.37;100.00;93552.56;5048837;28;20041;-64
2023/03/18 02:14:53;;;;;;;12.10;6.60;;;;;;;5.20;100.00;93551.44;5044574;28;20046;-64
2023/03/18 02:17:24;;;;;;;10.70;6.13;;;;;;;5.10;100.00;93555.72;5038977;28;20044;-66
2023/03/18 02:19:59;;;;;;;14.30;7.13;;;;;;;4.71;100.00;93555.69;5045943;28;20401;-65
2023/03/18 02:22:30;;;;;;;11.85;6.65;;;;;;;4.81;100.00;93552.22;5038125;28;20123;-65
2023/03/18 02:25:09;;;;;;;11.82;6.65;;;;;;;4.89;100.00;93555.69;5046138;28;20092;-65
2023/03/18 02:27:43;;;;;;;10.70;6.40;;;;;;;4.87;100.00;93552.59;5048559;28;20344;-64
2023/03/18 02:30:19;;;;;;;10.68;6.10;;;;;;;4.90;100.00;93558.03;5036042;28;20053;-67
2023/03/18 02:32:49;;;;;;;10.73;5.93;;;;;;;4.92;100.00;93550.28;5047454;28;20071;-65
2023/03/18 02:35:16;;;;;;;10.70;5.80;;;;;;;4.94;100.00;93547.94;5035329;28;20838;-64
2023/03/18 02:37:43;;;;;;;10.65;6.07;;;;;;;4.93;100.00;93546.41;5030782;28;20043;-65
2023/03/18 02:40:26;;;;;;;10.13;5.80;;;;;;;4.86;100.00;93553.78;5047970;28;20532;-64
2023/03/18 02:42:53;;;;;;;11.90;5.32;;;;;;;4.76;100.00;93553.38;5047680;28;20098;-65
2023/03/18 02:45:31;;;;;;;8.52;4.82;;;;;;;4.78;100.00;93553.00;5039008;28;20043;-64
2023/03/18 02:47:59;;;;;;;10.02;5.28;;;;;;;4.74;100.00;93554.94;5045814;28;20037;-67
2023/03/18 02:50:25;;;;;;;9.57;5.18;;;;;;;4.74;100.00;93555.69;5048259;28;20473;-64
2023/03/18 02:52:52;;;;;;;8.80;5.17;;;;;;;4.69;100.00;93545.22;5047560;28;20055;-64
2023/03/18 02:55:19;;;;;;;10.50;5.07;;;;;;;4.64;100.00;93552.97;5048022;28;20044;-64
2023/03/18 02:57:45;;;;;;;14.35;4.85;;;;;;;4.62;100.00;93549.88;5048101;28;20042;-65
2023/03/18 03:00:13;;;;;;;8.73;4.80;;;;;;;4.63;100.00;93552.22;5047923;28;20044;-65
2023/03/18 03:02:40;;;;;;;10.60;4.82;;;;;;;4.61;100.00;93549.09;5046353;28;20053;-66
2023/03/18 03:05:08;;;;;;;10.13;4.40;;;;;;;4.55;100.00;93551.41;5021260;28;20041;-66
2023/03/18 03:07:34;;;;;;;9.05;4.95;;;;;;;4.31;100.00;93552.91;5048076;28;20041;-65
2023/03/18 03:10:03;;;;;;;9.43;4.97;;;;;;;4.29;100.00;93557.19;5046289;28;20473;-65
2023/03/18 03:12:30;;;;;;;8.85;4.80;;;;;;;4.38;100.00;93552.16;5048075;28;20049;-65
2023/03/18 03:14:57;;;;;;;9.15;4.70;;;;;;;4.42;100.00;93557.59;5047390;28;20041;-64
2023/03/18 03:17:23;;;;;;;12.40;6.20;;;;;;;4.42;100.00;93552.16;5047948;28;20045;-64
2023/03/18 03:19:50;;;;;;;9.75;5.43;;;;;;;4.19;100.00;93564.91;5046932;28;20206;-65
2023/03/18 03:22:17;;;;;;;9.55;4.95;;;;;;;4.02;100.00;93554.75;5047998;28;20486;-64
2023/03/18 03:24:44;;;;;;;9.23;5.13;;;;;;;3.93;100.00;93560.56;5047733;28;20102;-66
2023/03/18 03:27:11;;;;;;;8.57;5.00;;;;;;;4.03;100.00;93566.41;5049590;28;20057;-65
2023/03/18 03:29:38;;;;;;;8.77;5.30;;;;;;;4.13;100.00;93569.16;5051582;28;20391;-64
2023/03/18 03:32:05;;;;;;;8.65;4.65;;;;;;;4.01;100.00;93569.50;5050734;28;20402;-65
2023/03/18 03:34:33;;;;;;;8.32;4.47;;;;;;;4.03;100.00;93575.34;5044506;28;20068;-65
2023/03/18 03:37:00;;;;;;;9.50;4.05;;;;;;;4.09;100.00;93576.50;5031921;28;20394;-67
2023/03/18 03:39:27;;;;;;;11.25;4.22;;;;;;;4.12;100.00;93577.69;5079547;28;20047;-66
2023/03/18 03:41:54;;;;;;;9.47;4.47;;;;;;;4.15;100.00;93576.94;5050887;28;20033;-65
2023/03/18 03:44:20;;;;;;;9.85;5.28;;;;;;;4.10;100.00;93569.91;5051347;28;20049;-64
2023/03/18 03:46:47;;;;;;;7.10;4.00;;;;;;;4.07;100.00;93572.63;5051198;28;20052;-65
2023/03/18 03:49:14;;;;;;;8.35;4.30;;;;;;;4.03;100.00;93569.91;5050209;28;20067;-64
2023/03/18 03:51:41;;;;;;;7.60;3.85;;;;;;;3.94;100.00;93572.97;5051170;28;20063;-66
2023/03/18 03:54:08;;;;;;;6.10;3.80;;;;;;;3.83;100.00;93572.13;5050462;28;20037;-65
2023/03/18 03:56:35;;;;;;;8.80;4.25;;;;;;;3.96;100.00;93572.56;5051076;28;20037;-66
2023/03/18 03:59:03;;;;;;;7.07;4.15;;;;;;;4.03;100.00;93574.56;5050406;28;20531;-65
2023/03/18 04:01:31;;;;;;;7.72;3.63;;;;;;;4.02;100.00;93565.63;5050859;28;20033;-65
2023/03/18 04:03:59;;;;;;;6.05;3.63;;;;;;;4.02;100.00;93571.03;5048139;28;20051;-65
2023/03/18 04:06:26;;;;;;;6.80;3.90;;;;;;;3.96;100.00;93561.72;5030247;28;20076;-64
2023/03/18 04:08:53;;;;;;;9.02;4.90;;;;;;;3.91;100.00;93572.97;5045337;28;20434;-65
2023/03/18 04:11:20;;;;;;;7.88;5.10;;;;;;;3.69;100.00;93570.13;5049323;28;20418;-65
2023/03/18 04:13:47;;;;;;;9.80;4.85;;;;;;;3.78;100.00;93569.78;5050721;28;20067;-66
2023/03/18 04:16:15;;;;;;;8.88;5.05;;;;;;;3.76;100.00;93572.09;5050535;28;20043;-65
2023/03/18 04:18:42;;;;;;;10.37;6.03;;;;;;;3.35;100.00;93578.47;5049195;28;20044;-65
2023/03/18 04:21:09;;;;;;;16.90;5.97;;;;;;;3.32;100.00;93586.56;5050092;28;20041;-64
2023/03/18 04:23:36;;;;;;;11.57;5.55;;;;;;;2.96;100.00;93584.38;5050369;28;20066;-65
2023/03/18 04:26:04;;;;;;;9.20;5.45;;;;;;;3.11;100.00;93587.97;5049518;28;20048;-65
2023/03/18 04:28:31;;;;;;;10.60;5.13;;;;;;;3.36;100.00;93582.75;5049029;28;20071;-66
2023/03/18 04:30:58;;;;;;;10.40;5.27;;;;;;;3.42;100.00;93580.47;5049644;28;20551;-66
2023/03/18 04:33:26;;;;;;;11.05;5.20;;;;;;;3.42;100.00;93587.78;5050327;28;20049;-65
2023/03/18 04:35:53;;;;;;;12.15;5.00;;;;;;;3.38;100.00;93587.75;5037364;28;20041;-66
2023/03/18 04:38:20;;;;;;;11.07;4.93;;;;;;;3.40;100.00;93582.75;5049491;28;20047;-64
2023/03/18 04:40:46;;;;;;;9.40;5.15;;;;;;;3.41;100.00;93587.03;5050262;28;20055;-65
2023/03/18 04:43:14;;;;;;;22.63;11.00;;;;;;;3.40;100.00;93574.59;5041670;28;20107;-66
2023/03/18 04:45:40;;;;;;;45.45;19.60;;;;;;;3.37;100.00;93570.72;5036856;28;20391;-66
2023/03/18 04:48:07;;;;;;;34.97;13.55;;;;;;;3.23;100.00;93578.75;5049564;28;20039;-66
2023/03/18 04:50:34;;;;;;;54.08;21.25;;;;;;;3.22;100.00;93582.66;5049689;28;20043;-65
2023/03/18 04:53:00;;;;;;;19.05;8.38;;;;;;;3.18;100.00;93576.41;5049715;28;20102;-64
2023/03/18 04:55:27;;;;;;;10.13;5.00;;;;;;;3.10;100.00;93585.63;5050031;28;20036;-66
2023/03/18 04:57:54;;;;;;;10.07;4.97;;;;;;;2.97;100.00;93580.50;5048379;28;20302;-66
2023/03/18 05:00:21;;;;;;;9.48;4.97;;;;;;;2.91;100.00;93581.25;5049504;28;20491;-64
2023/03/18 05:02:48;;;;;;;10.45;4.88;;;;;;;2.87;100.00;93581.19;5050077;28;20355;-65
2023/03/18 05:05:15;;;;;;;8.45;4.82;;;;;;;2.83;100.00;93577.69;5048568;28;21578;-65
2023/03/18 05:07:42;;;;;;;10.17;4.97;;;;;;;2.75;100.00;93584.19;5049924;28;20051;-64
2023/03/18 05:10:09;;;;;;;10.20;5.07;;;;;;;2.78;100.00;93578.81;5048649;28;20056;-65
2023/03/18 05:12:36;;;;;;;8.57;4.68;;;;;;;2.68;100.00;93582.22;5037051;28;20090;-65
2023/03/18 05:15:05;;;;;;;7.90;4.85;;;;;;;2.69;100.00;93581.03;5048844;28;20040;-65
2023/03/18 05:17:31;;;;;;;8.18;5.10;;;;;;;2.63;100.00;93582.53;5049704;28;20340;-65
2023/03/18 05:19:58;;;;;;;12.13;5.80;;;;;;;2.69;100.00;93572.16;5049265;28;20376;-64
2023/03/18 05:22:25;;;;;;;10.18;5.47;;;;;;;2.65;100.00;93577.53;5031825;28;20041;-64
2023/03/18 05:24:52;;;;;;;9.13;5.30;;;;;;;2.62;100.00;93586.41;5040922;28;20049;-65
2023/03/18 05:27:19;;;;;;;9.15;4.43;;;;;;;2.55;100.00;93578.19;5049245;28;20032;-64
2023/03/18 05:29:47;;;;;;;7.57;4.65;;;;;;;2.50;100.00;93583.97;5049304;28;20394;-64
2023/03/18 05:32:15;;;;;;;14.03;6.43;;;;;;;2.50;100.00;93583.97;5048779;28;20098;-66
2023/03/18 05:34:42;;;;;;;12.18;6.35;;;;;;;2.47;100.00;93582.78;5049538;28;20515;-64
2023/03/18 05:37:11;;;;;;;9.57;5.95;;;;;;;2.43;100.00;93583.91;5048808;28;20056;-65
2023/03/18 05:39:38;;;;;;;11.93;6.45;;;;;;;2.45;100.00;93581.59;5048960;28;20033;-65
2023/03/18 05:42:05;;;;;;;11.73;6.63;;;;;;;2.49;100.00;93585.88;5047195;28;20037;-68
2023/03/18 05:44:32;;;;;;;10.83;6.10;;;;;;;2.37;100.00;93592.38;5037757;28;20034;-65
2023/03/18 05:47:00;;;;;;;14.40;5.93;;;;;;;2.28;100.00;93591.88;5037488;28;20051;-64
2023/03/18 05:49:27;;;;;;;10.93;6.00;;;;;;;2.48;100.00;93589.00;5047689;28;20121;-64
2023/03/18 05:51:54;;;;;;;12.45;6.00;;;;;;;2.45;100.00;93589.72;5047555;28;20044;-65
2023/03/18 05:54:22;;;;;;;12.50;6.22;;;;;;;2.59;100.00;93582.50;5048013;28;20049;-66
2023/03/18 05:56:51;;;;;;;11.43;5.87;;;;;;;2.66;100.00;93589.16;5048447;28;20032;-65
2023/03/18 05:59:18;;;;;;;11.73;6.00;;;;;;;2.79;100.00;93582.28;5047649;28;20208;-64
2023/03/18 06:01:45;;;;;;;12.23;6.15;;;;;;;2.88;100.00;93587.38;5048853;28;20055;-65
2023/03/18 06:04:12;;;;;;;10.85;6.13;;;;;;;2.99;100.00;93585.56;5047657;28;20381;-65
2023/03/18 06:06:39;;;;;;;11.30;6.30;;;;;;;3.07;100.00;93584.47;5048039;28;20412;-64
2023/03/18 06:09:08;;;;;;;10.83;6.13;;;;;;;3.16;100.00;93592.28;5047948;28;20041;-64
2023/03/18 06:11:35;;;;;;;10.73;5.65;;;;;;;2.96;100.00;93591.75;5048189;28;20033;-64
2023/03/18 06:14:04;;;;;;;10.85;6.55;;;;;;;3.09;100.00;93598.41;5047132;28;20503;-65
2023/03/18 06:16:32;;;;;;;10.73;6.50;;;;;;;3.10;100.00;93600.00;5042260;28;20056;-64
2023/03/18 06:19:00;;;;;;;9.73;5.70;;;;;;;3.21;100.00;93608.19;5047375;28;20041;-64
2023/03/18 06:21:27;;;;;;;10.63;6.17;;;;;;;3.38;100.00;93601.31;5047975;28;20047;-65
2023/03/18 06:23:54;;;;;;;10.85;5.97;;;;;;;3.50;100.00;93611.09;5047413;28;20037;-65
2023/03/18 06:26:20;;;;;;;9.30;5.80;;;;;;;3.57;100.00;93603.00;5048019;28;20049;-62
2023/03/18 06:28:47;;;;;;;10.43;6.30;;;;;;;3.60;100.00;93610.38;5048151;28;20041;-64
2023/03/18 06:31:14;;;;;;;11.02;6.22;;;;;;;3.56;100.00;93610.38;5046659;28;20041;-63
2023/03/18 06:33:41;;;;;;;10.33;5.73;;;;;;;3.66;100.00;93606.16;5048083;28;20063;-63
2023/03/18 06:36:09;;;;;;;11.05;6.03;;;;;;;3.69;100.00;93605.41;5046738;28;20048;-64
2023/03/18 06:38:36;;;;;;;10.32;6.15;;;;;;;3.64;100.00;93613.13;5047865;28;20037;-65
2023/03/18 06:41:03;;;;;;;10.73;6.03;;;;;;;3.72;100.00;93606.59;5047315;28;20048;-65
2023/03/18 06:43:30;;;;;;;11.73;6.85;;;;;;;3.73;100.00;93600.78;5047855;28;20045;-64
2023/03/18 06:45:58;;;;;;;13.90;6.77;;;;;;;3.77;100.00;93598.88;5047347;28;20064;-64
2023/03/18 06:48:25;;;;;;;12.82;6.63;;;;;;;3.93;100.00;93603.22;5047645;28;20045;-65
2023/03/18 06:50:53;;;;;;;14.60;6.63;;;;;;;4.05;100.00;93597.44;5047255;28;20053;-63
2023/03/18 06:53:20;;;;;;;10.57;6.88;;;;;;;4.14;100.00;93599.81;5047421;28;20049;-64
2023/03/18 06:55:47;;;;;;;17.15;10.38;;;;;;;4.19;100.00;93602.94;5047428;28;20037;-64
2023/03/18 06:58:16;;;;;;;10.70;6.83;;;;;;;4.07;100.00;93605.22;5046857;28;20278;-66
2023/03/18 07:00:44;;;;;;;12.55;7.45;;;;;;;3.89;100.00;93603.19;5047739;28;20045;-64
2023/03/18 07:03:14;;;;;;;11.30;7.00;;;;;;;3.91;100.00;93600.88;5034267;28;20687;-65
2023/03/18 07:05:41;;;;;;;12.20;7.40;;;;;;;3.92;100.00;93605.13;5035356;28;20051;-63
2023/03/18 07:08:09;;;;;;;12.65;7.68;;;;;;;4.05;100.00;93602.09;5050638;28;20063;-65
2023/03/18 07:10:35;;;;;;;21.00;11.83;;;;;;;4.27;100.00;93601.03;5042738;28;20071;-64
2023/03/18 07:13:03;;;;;;;16.42;9.90;;;;;;;4.42;100.00;93601.06;5050726;28;20102;-64
2023/03/18 07:15:31;;;;;;;13.73;8.80;;;;;;;4.63;100.00;93601.13;5083120;28;20044;-65
2023/03/18 07:17:59;;;;;;;16.73;8.75;;;;;;;4.68;100.00;93608.88;5050386;28;20044;-65
2023/03/18 07:20:27;;;;;;;16.75;9.05;;;;;;;4.65;100.00;93603.44;5051132;28;20044;-66
2023/03/18 07:22:54;;;;;;;15.80;9.07;;;;;;;4.73;100.00;93605.03;5037430;28;20478;-63
2023/03/18 07:25:20;;;;;;;14.95;9.25;;;;;;;4.99;100.00;93609.34;5051280;28;20047;-64
2023/03/18 07:27:48;;;;;;;17.13;10.55;;;;;;;5.11;100.00;93597.28;5046040;28;20063;-65
2023/03/18 07:30:16;;;;;;;17.80;10.55;;;;;;;5.34;100.00;93605.84;5041723;28;20784;-64
2023/03/18 07:32:44;;;;;;;20.38;12.30;;;;;;;5.70;100.00;93605.03;5050901;28;20081;-66
2023/03/18 07:35:14;;;;;;;19.87;10.13;;;;;;;6.82;100.00;93610.84;5039327;28;20421;-66
2023/03/18 07:37:41;;;;;;;17.23;11.00;;;;;;;10.59;100.00;93609.53;5048703;28;20409;-66
2023/03/18 07:40:10;;;;;;;15.38;9.80;;;;;;;13.88;75.01;93606.81;5042811;28;20040;-65
2023/03/18 07:42:37;;;;;;;13.00;8.80;;;;;;;15.06;61.71;93602.69;5044985;28;20041;-67
2023/03/18 07:45:05;;;;;;;13.13;8.40;;;;;;;16.49;56.58;93604.50;5050248;28;20041;-65
2023/03/18 07:47:32;;;;;;;12.73;8.10;;;;;;;17.52;49.22;93597.56;5050622;28;20049;-67
2023/03/18 07:49:59;;;;;;;10.43;7.50;;;;;;;18.05;47.07;93597.03;5049764;28;20036;-65
2023/03/18 07:52:26;;;;;;;11.20;8.48;;;;;;;19.41;43.93;93594.81;5050523;28;20041;-64
2023/03/18 07:54:52;;;;;;;12.70;7.72;;;;;;;19.06;43.48;93594.75;5049984;28;20032;-65
2023/03/18 07:57:19;;;;;;;9.73;7.15;;;;;;;18.03;43.24;93595.97;5050383;28;20041;-65
2023/03/18 07:59:46;;;;;;;11.23;7.33;;;;;;;19.27;43.16;93587.25;5045839;28;20402;-67
2023/03/18 08:02:14;;;;;;;8.80;6.80;;;;;;;22.09;38.55;93582.16;5033435;28;20040;-65
2023/03/18 08:04:42;;;;;;;9.60;6.70;;;;;;;23.25;34.85;93587.22;5032006;28;20037;-67
2023/03/18 08:07:10;;;;;;;9.13;6.28;;;;;;;23.18;33.17;93582.13;5047951;28;20033;-67
2023/03/18 08:09:37;;;;;;;8.50;5.93;;;;;;;23.77;32.87;93577.59;5049485;28;20033;-65
2023/03/18 08:12:04;;;;;;;7.83;5.90;;;;;;;23.06;33.58;93590.50;5048675;28;20398;-65
2023/03/18 08:14:31;;;;;;;8.85;5.65;;;;;;;23.61;31.91;93587.53;5050942;28;20049;-65
2023/03/18 08:16:57;;;;;;;8.48;6.05;;;;;;;22.65;32.63;93588.06;5049895;28;20049;-66
2023/03/18 08:19:25;;;;;;;8.50;6.40;;;;;;;24.05;31.47;93578.34;5050087;28;20043;-63
2023/03/18 08:21:52;;;;;;;8.38;6.28;;;;;;;24.46;29.92;93588.94;5049914;28;20040;-65
2023/03/18 08:24:19;;;;;;;12.23;6.60;;;;;;;24.46;30.45;93586.13;5050560;28;20037;-65
2023/03/18 08:26:47;;;;;;;10.65;6.57;;;;;;;25.11;30.08;93582.06;5050729;28;20041;-62
2023/03/18 08:29:13;;;;;;;8.23;6.07;;;;;;;26.32;28.26;93578.59;5048354;28;20048;-63
2023/03/18 08:31:40;;;;;;;9.52;5.78;;;;;;;27.78;26.29;93580.81;5050460;28;20159;-64
2023/03/18 08:34:07;;;;;;;7.88;5.32;;;;;;;27.32;26.27;93580.00;5049759;28;20049;-63
2023/03/18 08:36:34;;;;;;;7.10;5.00;;;;;;;26.61;26.27;93581.91;5049796;28;20098;-66
2023/03/18 08:39:02;;;;;;;8.10;5.10;;;;;;;27.20;26.72;93582.16;5049526;28;20037;-66
2023/03/18 08:41:30;;;;;;;7.05;4.90;;;;;;;27.75;25.29;93576.25;5048144;28;20056;-65
2023/03/18 08:43:57;;;;;;;8.82;4.60;;;;;;;28.15;24.91;93574.34;5049470;28;20041;-64
2023/03/18 08:46:24;;;;;;;8.88;5.18;;;;;;;29.36;23.68;93570.19;5049647;28;20051;-64
2023/03/18 08:48:53;;;;;;;7.67;4.50;;;;;;;29.46;23.07;93574.06;5049169;28;20262;-64
2023/03/18 08:51:21;;;;;;;9.05;4.40;;;;;;;27.98;23.13;93579.50;5049597;28;20039;-65
2023/03/18 08:53:48;;;;;;;7.38;4.65;;;;;;;28.05;23.67;93576.03;5049802;28;20056;-66
2023/03/18 08:56:15;;;;;;;8.10;4.00;;;;;;;30.75;21.61;93577.09;5049462;28;20071;-68
2023/03/18 08:58:45;;;;;;;11.20;5.60;;;;;;;27.09;23.64;93569.00;5049758;28;20055;-65
2023/03/18 09:01:12;;;;;;;12.73;4.90;;;;;;;25.98;26.35;93566.91;5049091;28;20071;-65
2023/03/18 09:03:39;;;;;;;9.02;4.40;;;;;;;25.78;26.31;93568.84;5049635;28;20055;-65
2023/03/18 09:06:06;;;;;;;7.45;3.80;;;;;;;27.20;24.49;93563.19;5048666;28;20047;-67
2023/03/18 09:08:33;;;;;;;7.82;3.40;;;;;;;29.27;22.16;93571.38;5049822;28;20036;-65
2023/03/18 09:10:59;;;;;;;5.80;3.35;;;;;;;27.96;22.52;93562.38;5048955;28;20037;-64
2023/03/18 09:13:26;;;;;;;4.97;3.00;;;;;;;26.78;22.41;93561.97;5036052;28;20042;-65
2023/03/18 09:15:53;;;;;;;6.65;3.92;;;;;;;24.63;23.43;93566.47;5049037;28;20098;-66
2023/03/18 09:18:21;;;;;;;7.47;4.00;;;;;;;22.81;25.70;93567.00;5030531;28;20059;-65
2023/03/18 09:20:49;;;;;;;5.15;3.50;;;;;;;23.16;24.71;93559.47;5035931;28;20032;-65
2023/03/18 09:23:17;;;;;;;5.63;3.47;;;;;;;23.11;24.56;93555.41;5042249;28;20051;-66
2023/03/18 09:25:45;;;;;;;6.70;3.23;;;;;;;24.64;23.56;93551.16;5037872;28;20381;-67
2023/03/18 09:28:13;;;;;;;5.85;2.90;;;;;;;22.32;25.21;93555.88;5040972;28;20045;-66
2023/03/18 09:30:40;;;;;;;5.85;3.40;;;;;;;22.04;25.66;93547.34;5048765;28;20363;-65
2023/03/18 09:33:09;;;;;;;5.68;3.15;;;;;;;20.67;27.11;93549.50;5048987;28;20040;-64
2023/03/18 09:35:37;;;;;;;5.93;3.50;;;;;;;20.26;27.65;93546.72;5049216;28;20051;-64
2023/03/18 09:38:05;;;;;;;5.77;3.60;;;;;;;20.84;27.37;93541.28;5048771;28;20062;-65
2023/03/18 09:40:40;;;;;;;5.93;3.25;;;;;;;20.41;27.71;93543.84;5048952;28;20469;-64
2023/03/18 09:43:09;;;;;;;6.15;3.10;;;;;;;21.91;26.04;93531.00;5048810;28;20381;-64
2023/03/18 09:45:51;;;;;;;5.28;3.70;;;;;;;22.82;25.53;93531.38;5048579;28;20045;-65
2023/03/18 09:48:33;;;;;;;7.90;3.63;;;;;;;22.08;25.33;93530.34;5047634;28;20874;-65
2023/03/18 09:51:30;;;;;;;5.30;2.77;;;;;;;21.47;26.65;93532.25;5046122;28;20041;-65
2023/03/18 09:54:27;;;;;;;6.30;3.15;;;;;;;22.29;26.04;93536.56;5048089;28;20252;-66
2023/03/18 09:56:54;;;;;;;4.93;2.75;;;;;;;22.42;25.77;93534.06;5048375;28;20067;-65
2023/03/18 09:59:30;;;;;;;5.18;2.70;;;;;;;23.41;23.79;93519.28;5048351;28;20045;-67
2023/03/18 10:01:58;;;;;;;5.07;2.80;;;;;;;22.26;25.94;93535.53;5048278;28;20053;-65
2023/03/18 10:04:32;;;;;;;6.53;3.10;;;;;;;22.72;26.13;93525.28;5048873;28;20107;-65
2023/03/18 10:07:04;;;;;;;8.07;2.90;;;;;;;22.11;25.93;93524.53;5048365;28;20041;-65
2023/03/18 10:09:43;;;;;;;5.22;2.40;;;;;;;20.67;27.54;93532.75;5045639;28;20037;-66
2023/03/18 10:12:25;;;;;;;4.85;2.65;;;;;;;20.34;28.10;93533.91;5071675;28;20047;-66
2023/03/18 10:15:12;;;;;;;5.93;3.20;;;;;;;21.83;26.88;93532.75;5043447;28;20037;-64
2023/03/18 10:17:44;;;;;;;6.07;2.70;;;;;;;20.93;27.68;93521.59;5035563;28;20393;-64
2023/03/18 10:20:18;;;;;;;5.63;2.70;;;;;;;19.84;29.14;93520.09;5032610;28;20057;-65
2023/03/18 10:22:51;;;;;;;5.13;2.70;;;;;;;20.05;28.65;93515.28;5048552;28;20535;-64
2023/03/18 10:25:25;;;;;;;5.00;2.70;;;;;;;21.49;27.01;93521.34;5047302;28;21225;-65
2023/03/18 10:28:14;;;;;;;5.57;2.60;;;;;;;21.80;26.31;93525.34;5047819;28;20401;-62
2023/03/18 10:31:09;;;;;;;6.70;2.70;;;;;;;22.03;26.27;93522.69;5022549;28;20039;-65
2023/03/18 10:33:43;;;;;;;5.13;2.80;;;;;;;21.37;26.93;93518.91;5047471;28;21602;-64
2023/03/18 10:36:48;;;;;;;6.15;2.80;;;;;;;23.93;24.43;93515.19;5049897;28;20053;-66
2023/03/18 10:39:23;;;;;;;6.57;3.00;;;;;;;24.81;22.79;93520.22;5046103;28;20534;-65
2023/03/18 10:41:52;;;;;;;5.53;2.67;;;;;;;22.85;25.12;93519.94;5052044;28;20037;-62
2023/03/18 10:44:26;;;;;;;7.10;2.93;;;;;;;23.31;25.24;93520.81;5052431;28;20043;-67
2023/03/18 10:47:08;;;;;;;6.65;3.05;;;;;;;23.83;24.16;93522.34;5052042;28;20129;-66
2023/03/18 10:49:44;;;;;;;5.18;3.10;;;;;;;24.30;23.18;93520.41;5052394;28;20106;-66
2023/03/18 10:52:33;;;;;;;7.28;3.17;;;;;;;25.28;22.90;93525.06;5041609;28;20045;-67
2023/03/18 10:55:00;;;;;;;6.68;2.90;;;;;;;26.55;21.87;93522.06;5020746;28;20033;-65
2023/03/18 10:57:27;;;;;;;5.50;2.70;;;;;;;25.06;22.33;93517.53;5047743;28;20040;-66
2023/03/18 10:59:54;;;;;;;7.20;2.90;;;;;;;24.07;23.34;93525.34;5051864;28;20055;-64
2023/03/18 11:02:33;;;;;;;6.78;3.05;;;;;;;24.30;23.62;93519.66;5038716;28;20038;-65
2023/03/18 11:05:17;;;;;;;4.43;2.70;;;;;;;25.40;22.03;93512.44;5051632;28;20043;-64
2023/03/18 11:07:58;;;;;;;6.13;2.65;;;;;;;23.80;23.80;93501.69;5051915;28;20055;-65
2023/03/18 11:10:33;;;;;;;4.83;2.47;;;;;;;23.83;23.35;93499.91;5050889;28;20703;-66
2023/03/18 11:13:01;;;;;;;5.63;2.83;;;;;;;23.69;22.97;93498.88;5024903;28;20249;-64
2023/03/18 11:15:34;;;;;;;4.78;2.60;;;;;;;23.48;24.13;93504.78;5039197;28;20053;-65
2023/03/18 11:18:02;;;;;;;5.65;2.53;;;;;;;24.90;21.96;93502.31;5031790;28;20045;-65
2023/03/18 11:20:46;;;;;;;3.75;2.25;;;;;;;24.37;21.93;93499.50;5037814;28;20796;-65
2023/03/18 11:26:54;;;;;;;5.57;2.90;;;;;;;24.45;22.91;93499.72;5026011;28;21446;-65
2023/03/18 11:29:25;;;;;;;5.63;3.05;;;;;;;23.63;23.49;93490.50;5018018;28;20550;-65
2023/03/18 11:31:57;;;;;;;11.60;3.13;;;;;;;23.16;24.16;93498.66;5041765;28;20029;-64
2023/03/18 11:34:34;;;;;;;4.53;2.80;;;;;;;23.36;23.64;93492.03;5050900;28;20071;-66
2023/03/18 11:37:09;;;;;;;5.23;2.37;;;;;;;22.04;25.94;93491.44;5050259;28;20486;-65
2023/03/18 11:39:39;;;;;;;5.05;2.45;;;;;;;20.84;26.23;93491.09;5050623;28;20041;-64
2023/03/18 11:42:18;;;;;;;6.28;2.88;;;;;;;20.64;26.79;93482.78;5050215;28;20481;-64